Time;durP1;ratioP1;P1;durP2;ratioP2;P2;SDS_P1;SDS_P2;PMS_P1;PMS_P2;Temp;Humidity;BMP_temperature;BMP_pressure;BME280_temperature;BME280_humidity;BME280_pressure;Samples;Min_cycle;Max_cycle;Signal;HPM_P1;HPM_P2
2022/05/11 00:01:29;;;;;;;0.40;0.40;;;15.40;1.00;;;;;;5033808;28;20595;-77
2022/05/11 00:03:59;;;;;;;0.40;0.40;;;15.50;1.00;;;;;;5033653;28;20265;-78
2022/05/11 00:06:26;;;;;;;0.40;0.40;;;15.50;1.00;;;;;;5033519;28;20203;-78
2022/05/11 00:08:53;;;;;;;0.40;0.40;;;15.40;1.00;;;;;;5052279;22;20182;-80
2022/05/11 00:11:18;;;;;;;0.40;0.40;;;15.40;1.00;;;;;;5118605;28;20371;-78
2022/05/11 00:13:44;;;;;;;0.37;0.37;;;15.40;1.00;;;;;;5118622;28;20299;-78
2022/05/11 00:16:11;;;;;;;0.40;0.40;;;15.40;1.00;;;;;;5119019;28;20577;-79
2022/05/11 00:18:37;;;;;;;0.33;0.33;;;15.30;1.00;;;;;;5118741;28;20185;-79
2022/05/11 00:21:03;;;;;;;0.43;0.43;;;15.20;1.00;;;;;;5118729;28;20200;-78
2022/05/11 00:23:29;;;;;;;0.40;0.40;;;15.20;1.00;;;;;;5117458;28;20208;-78
2022/05/11 00:25:55;;;;;;;0.40;0.40;;;15.10;1.00;;;;;;5114711;28;20298;-76
2022/05/11 00:28:20;;;;;;;0.40;0.40;;;15.00;1.00;;;;;;5114144;28;20321;-77
2022/05/11 00:30:46;;;;;;;0.30;0.30;;;15.00;1.00;;;;;;5113829;28;20189;-77
2022/05/11 00:33:14;;;;;;;0.40;0.40;;;14.90;1.00;;;;;;5113996;28;20241;-77
2022/05/11 00:35:40;;;;;;;0.40;0.40;;;14.80;1.30;;;;;;5114345;28;20180;-77
2022/05/11 00:38:06;;;;;;;0.50;0.50;;;14.80;1.00;;;;;;5113805;28;20177;-77
2022/05/11 00:40:33;;;;;;;0.30;0.30;;;14.80;1.00;;;;;;5113395;28;20544;-77
2022/05/11 00:42:59;;;;;;;0.40;0.40;;;14.80;1.00;;;;;;5114009;28;20707;-76
2022/05/11 00:45:25;;;;;;;0.40;0.40;;;14.80;1.00;;;;;;5113796;28;20177;-77
2022/05/11 00:47:56;;;;;;;0.40;0.40;;;14.80;29.20;;;;;;5114641;28;20223;-77
2022/05/11 00:50:34;;;;;;;0.30;0.30;;;14.90;27.80;;;;;;5113928;28;20193;-76
2022/05/11 00:53:11;;;;;;;0.40;0.40;;;14.90;1.00;;;;;;5115522;28;20177;-77
2022/05/11 00:55:59;;;;;;;0.40;0.40;;;14.90;1.00;;;;;;5113870;28;20260;-77
2022/05/11 00:58:55;;;;;;;0.43;0.43;;;14.80;1.00;;;;;;5113785;28;20191;-77
2022/05/11 01:01:20;;;;;;;0.30;0.30;;;14.80;1.00;;;;;;5111378;28;20250;-76
2022/05/11 01:04:03;;;;;;;0.40;0.40;;;14.80;1.00;;;;;;5113195;28;20216;-77
2022/05/11 01:06:31;;;;;;;0.43;0.43;;;14.80;1.00;;;;;;5113405;28;20164;-77
2022/05/11 01:09:00;;;;;;;0.40;0.40;;;14.80;1.00;;;;;;5112934;28;20188;-76
2022/05/11 01:11:26;;;;;;;0.40;0.40;;;14.70;1.00;;;;;;5113173;28;20280;-77
2022/05/11 01:13:52;;;;;;;0.40;0.40;;;14.60;1.00;;;;;;5112937;28;20685;-77
2022/05/11 01:16:17;;;;;;;0.40;0.40;;;14.40;1.00;;;;;;5113144;28;20245;-76
2022/05/11 01:18:44;;;;;;;0.30;0.30;;;14.10;1.00;;;;;;5114570;28;20173;-75
2022/05/11 01:21:09;;;;;;;0.30;0.30;;;13.90;1.00;;;;;;5101922;28;20193;-76
2022/05/11 01:23:43;;;;;;;0.40;0.40;;;13.80;1.00;;;;;;5119751;28;20238;-76
2022/05/11 01:26:08;;;;;;;0.30;0.30;;;13.80;1.00;;;;;;5118581;28;20358;-76
2022/05/11 01:28:44;;;;;;;0.50;0.50;;;13.70;1.00;;;;;;5120446;28;20184;-76
2022/05/11 01:31:11;;;;;;;0.40;0.40;;;13.60;1.00;;;;;;5113141;28;20192;-77
2022/05/11 01:33:40;;;;;;;0.40;0.40;;;13.60;1.00;;;;;;5112991;28;20177;-77
2022/05/11 01:36:26;;;;;;;0.50;0.50;;;13.50;1.00;;;;;;5113069;28;20172;-76
2022/05/11 01:38:59;;;;;;;0.50;0.50;;;13.50;1.00;;;;;;5112392;28;20172;-75
2022/05/11 01:41:33;;;;;;;0.40;0.40;;;13.70;1.00;;;;;;5112476;28;20193;-77
2022/05/11 01:44:00;;;;;;;0.50;0.50;;;13.50;1.00;;;;;;5112596;28;20209;-77
2022/05/11 01:46:27;;;;;;;0.40;0.40;;;13.50;1.00;;;;;;5112734;28;20256;-77
2022/05/11 01:48:53;;;;;;;0.40;0.40;;;13.50;1.00;;;;;;5112251;28;20181;-77
2022/05/11 01:51:19;;;;;;;0.50;0.50;;;13.50;1.00;;;;;;5112800;28;20538;-76
2022/05/11 01:53:46;;;;;;;0.40;0.40;;;13.50;1.00;;;;;;5112231;28;20283;-76
2022/05/11 01:56:22;;;;;;;0.40;0.40;;;13.50;1.00;;;;;;5111243;28;20721;-77
2022/05/11 01:58:48;;;;;;;0.50;0.50;;;13.50;1.00;;;;;;5112267;28;20263;-76
2022/05/11 02:01:15;;;;;;;0.50;0.50;;;13.50;1.00;;;;;;5111807;28;20200;-77
2022/05/11 02:03:41;;;;;;;0.40;0.40;;;13.60;2.30;;;;;;5112148;28;20213;-76
2022/05/11 02:08:51;;;;;;;0.37;0.37;;;13.60;4.00;;;;;;5112082;28;20258;-78
2022/05/11 02:11:17;;;;;;;0.40;0.40;;;13.50;8.90;;;;;;5113108;28;20208;-77
2022/05/11 02:13:44;;;;;;;0.50;0.50;;;13.50;7.00;;;;;;5112646;28;20181;-77
2022/05/11 02:16:11;;;;;;;0.50;0.50;;;13.40;1.00;;;;;;5112857;28;20172;-77
2022/05/11 02:18:36;;;;;;;0.40;0.40;;;13.40;1.00;;;;;;5112763;28;20179;-76
2022/05/11 02:21:02;;;;;;;0.50;0.50;;;13.20;1.00;;;;;;5111648;28;20197;-78
2022/05/11 02:23:27;;;;;;;0.50;0.50;;;13.20;18.20;;;;;;5111864;28;20250;-76
2022/05/11 02:25:53;;;;;;;0.53;0.53;;;13.20;7.80;;;;;;5112774;28;20177;-77
2022/05/11 02:28:21;;;;;;;0.60;0.60;;;13.20;1.00;;;;;;5111717;28;20177;-76
2022/05/11 02:30:49;;;;;;;0.50;0.50;;;13.20;1.00;;;;;;5111441;28;20189;-77
2022/05/11 02:33:15;;;;;;;0.53;0.53;;;13.10;1.00;;;;;;5112103;28;20225;-76
2022/05/11 02:35:42;;;;;;;0.50;0.50;;;13.10;1.00;;;;;;5111559;28;20169;-80
2022/05/11 02:38:14;;;;;;;0.50;0.50;;;13.10;1.00;;;;;;5111938;28;20177;-77
2022/05/11 02:40:41;;;;;;;0.40;0.40;;;13.10;1.00;;;;;;5111648;28;20849;-77
2022/05/11 02:43:10;;;;;;;0.50;0.50;;;13.10;1.00;;;;;;5112272;28;20216;-76
2022/05/11 02:45:36;;;;;;;0.50;0.50;;;13.10;1.00;;;;;;5111992;28;20657;-77
2022/05/11 02:48:03;;;;;;;0.50;0.50;;;13.10;1.00;;;;;;5112120;28;20173;-77
2022/05/11 02:50:33;;;;;;;0.50;0.50;;;13.10;1.00;;;;;;5111609;28;20256;-77
2022/05/11 02:52:59;;;;;;;0.50;0.50;;;13.10;10.60;;;;;;5112279;28;20185;-77
2022/05/11 02:55:24;;;;;;;0.33;0.33;;;13.10;4.80;;;;;;5111870;28;20549;-77
2022/05/11 02:57:50;;;;;;;0.40;0.40;;;13.10;1.00;;;;;;5111827;28;20177;-78
2022/05/11 03:00:18;;;;;;;0.40;0.40;;;13.10;1.00;;;;;;5112950;28;20199;-77
2022/05/11 03:02:43;;;;;;;0.43;0.43;;;13.00;1.00;;;;;;5113509;28;20255;-76
2022/05/11 03:05:12;;;;;;;0.40;0.40;;;13.00;1.00;;;;;;5112623;28;20193;-77
2022/05/11 03:07:38;;;;;;;0.50;0.50;;;13.00;1.00;;;;;;5114223;28;20184;-76
2022/05/11 03:10:05;;;;;;;0.50;0.50;;;13.00;1.00;;;;;;5105655;28;20526;-76
2022/05/11 03:12:32;;;;;;;0.50;0.50;;;13.00;1.00;;;;;;5115167;28;20234;-77
2022/05/11 03:14:58;;;;;;;0.40;0.40;;;13.00;5.60;;;;;;5115378;28;20180;-76
2022/05/11 03:17:24;;;;;;;0.43;0.43;;;13.00;18.20;;;;;;5115139;28;20245;-76
2022/05/11 03:19:50;;;;;;;0.50;0.50;;;12.90;8.00;;;;;;5114482;28;20185;-76
2022/05/11 03:22:15;;;;;;;0.50;0.50;;;12.90;1.00;;;;;;5115185;28;20219;-77
2022/05/11 03:24:41;;;;;;;0.50;0.50;;;12.90;1.00;;;;;;5114960;28;20230;-77
2022/05/11 03:27:07;;;;;;;0.40;0.40;;;12.90;1.00;;;;;;5111947;28;20192;-77
2022/05/11 03:29:33;;;;;;;0.40;0.40;;;12.90;1.00;;;;;;5114316;28;20681;-77
2022/05/11 03:34:43;;;;;;;0.50;0.50;;;12.80;1.00;;;;;;5108829;28;20681;-77
2022/05/11 03:37:12;;;;;;;0.50;0.50;;;12.80;1.00;;;;;;5115112;28;20177;-77
2022/05/11 03:39:38;;;;;;;0.60;0.60;;;12.80;1.00;;;;;;5114304;28;20170;-76
2022/05/11 03:42:05;;;;;;;0.40;0.40;;;12.80;1.00;;;;;;5115103;28;20189;-76
2022/05/11 03:44:31;;;;;;;0.40;0.40;;;12.80;1.00;;;;;;5114669;28;20326;-77
2022/05/11 03:46:57;;;;;;;0.50;0.50;;;12.70;1.00;;;;;;5114438;28;20645;-77
2022/05/11 03:49:22;;;;;;;0.40;0.40;;;12.70;1.00;;;;;;5114561;28;20169;-77
2022/05/11 03:51:51;;;;;;;0.50;0.50;;;12.70;4.80;;;;;;5114501;28;20201;-77
2022/05/11 03:54:17;;;;;;;0.53;0.53;;;12.70;1.00;;;;;;5114856;28;20173;-77
2022/05/11 03:56:43;;;;;;;0.40;0.40;;;12.70;8.20;;;;;;5114525;28;20209;-76
2022/05/11 03:59:09;;;;;;;0.50;0.50;;;12.70;1.00;;;;;;5113849;28;20169;-77
2022/05/11 04:01:35;;;;;;;0.30;0.30;;;12.60;1.00;;;;;;5114373;28;20196;-76
2022/05/11 04:04:01;;;;;;;0.43;0.43;;;12.70;1.00;;;;;;5114425;28;20257;-76
2022/05/11 04:06:27;;;;;;;0.50;0.50;;;12.70;1.80;;;;;;5114359;28;20177;-77
2022/05/11 04:08:52;;;;;;;0.30;0.30;;;12.70;16.70;;;;;;5113686;28;20180;-78
2022/05/11 04:11:19;;;;;;;0.50;0.50;;;12.70;51.70;;;;;;5114267;28;20235;-76
2022/05/11 04:13:45;;;;;;;0.50;0.50;;;12.70;57.80;;;;;;5114399;28;20178;-77
2022/05/11 04:16:10;;;;;;;0.40;0.40;;;12.70;43.30;;;;;;5113969;28;20276;-77
2022/05/11 04:18:36;;;;;;;0.50;0.50;;;12.70;31.50;;;;;;5112974;28;20201;-76
2022/05/11 04:21:02;;;;;;;0.40;0.40;;;12.70;28.60;;;;;;5113470;28;20193;-76
2022/05/11 04:23:28;;;;;;;0.30;0.30;;;12.70;51.30;;;;;;5113578;28;20579;-76
2022/05/11 04:25:57;;;;;;;0.40;0.40;;;12.70;58.80;;;;;;5113836;28;20256;-77
2022/05/11 04:28:23;;;;;;;0.30;0.30;;;12.70;58.30;;;;;;5113900;28;20245;-77
2022/05/11 04:30:49;;;;;;;0.40;0.40;;;12.70;55.00;;;;;;5099099;28;20671;-76
2022/05/11 04:33:14;;;;;;;0.40;0.40;;;12.80;45.20;;;;;;5093606;28;20204;-77
2022/05/11 04:35:40;;;;;;;0.40;0.40;;;12.80;50.00;;;;;;5093323;28;20205;-76
2022/05/11 04:38:06;;;;;;;0.60;0.60;;;12.80;44.40;;;;;;5093224;28;20170;-77
2022/05/11 04:40:34;;;;;;;0.40;0.40;;;12.80;53.90;;;;;;5092574;28;20223;-77
2022/05/11 04:43:06;;;;;;;0.40;0.40;;;12.90;50.30;;;;;;5093027;28;20225;-77
2022/05/11 04:45:31;;;;;;;0.43;0.43;;;12.90;34.30;;;;;;5093680;28;20182;-76
2022/05/11 04:47:57;;;;;;;0.40;0.40;;;12.90;17.40;;;;;;5093488;28;20192;-77
2022/05/11 04:50:22;;;;;;;0.50;0.50;;;12.90;14.40;;;;;;5092991;28;20174;-77
2022/05/11 04:52:48;;;;;;;0.50;0.50;;;13.00;27.00;;;;;;5093017;28;20580;-77
2022/05/11 04:55:14;;;;;;;0.40;0.40;;;13.00;20.40;;;;;;5093254;28;20170;-76
2022/05/11 04:57:39;;;;;;;0.40;0.40;;;13.10;7.30;;;;;;5092988;28;20189;-77
2022/05/11 05:00:09;;;;;;;0.40;0.40;;;13.10;13.20;;;;;;5092517;28;20249;-76
2022/05/11 05:02:35;;;;;;;0.53;0.53;;;13.20;15.40;;;;;;5092695;28;20201;-76
2022/05/11 05:05:05;;;;;;;0.50;0.50;;;13.20;19.80;;;;;;5092741;28;20638;-77
2022/05/11 05:07:31;;;;;;;0.40;0.40;;;13.20;28.20;;;;;;5092898;28;20227;-77
2022/05/11 05:09:57;;;;;;;0.40;0.40;;;13.30;26.70;;;;;;5092076;28;20200;-76
2022/05/11 05:12:24;;;;;;;0.40;0.40;;;13.30;7.60;;;;;;5092683;28;20186;-77
2022/05/11 05:14:49;;;;;;;0.30;0.30;;;13.30;1.40;;;;;;5092894;28;20559;-77
2022/05/11 05:17:15;;;;;;;0.40;0.40;;;13.40;1.00;;;;;;5093019;28;20166;-77
2022/05/11 05:19:42;;;;;;;0.40;0.40;;;13.40;11.30;;;;;;5092655;28;20173;-76
2022/05/11 05:22:08;;;;;;;0.40;0.40;;;13.60;20.90;;;;;;5092454;28;20207;-77
2022/05/11 05:24:34;;;;;;;0.40;0.40;;;13.70;25.80;;;;;;5092693;28;20276;-77
2022/05/11 05:27:00;;;;;;;0.40;0.40;;;13.70;3.20;;;;;;5092710;28;20181;-76
2022/05/11 05:32:11;;;;;;;0.40;0.40;;;13.90;24.70;;;;;;5104715;28;20294;-77
2022/05/11 05:34:36;;;;;;;0.40;0.40;;;14.00;13.10;;;;;;5111891;28;20177;-78
2022/05/11 05:37:02;;;;;;;0.40;0.40;;;14.10;8.90;;;;;;5101691;28;20534;-76
2022/05/11 05:39:28;;;;;;;0.40;0.40;;;14.30;21.90;;;;;;5111340;28;20180;-77
2022/05/11 05:41:53;;;;;;;0.30;0.30;;;14.40;3.30;;;;;;5112550;28;20283;-76
2022/05/11 05:44:19;;;;;;;0.40;0.40;;;14.50;1.00;;;;;;5112495;28;20205;-78
2022/05/11 05:46:45;;;;;;;0.30;0.30;;;14.60;1.00;;;;;;5112516;28;20191;-77
2022/05/11 05:49:12;;;;;;;0.30;0.30;;;14.70;1.00;;;;;;5113968;28;20181;-78
2022/05/11 05:51:39;;;;;;;0.50;0.50;;;14.70;1.00;;;;;;5113095;28;20192;-77
2022/05/11 05:54:05;;;;;;;0.30;0.30;;;14.90;1.00;;;;;;5093999;28;20759;-76
2022/05/11 05:56:32;;;;;;;0.40;0.40;;;15.00;1.00;;;;;;5112416;28;20556;-77
2022/05/11 05:59:01;;;;;;;0.47;0.47;;;15.00;1.00;;;;;;5111863;28;20188;-77
2022/05/11 06:01:27;;;;;;;0.40;0.40;;;15.00;1.00;;;;;;5112413;28;20196;-78
2022/05/11 06:03:53;;;;;;;0.37;0.37;;;15.10;1.00;;;;;;5112576;28;20205;-77
2022/05/11 06:06:19;;;;;;;0.43;0.43;;;15.20;1.00;;;;;;5112257;28;20185;-77
2022/05/11 06:08:46;;;;;;;0.40;0.40;;;15.30;1.00;;;;;;5112317;28;20208;-79
2022/05/11 06:11:11;;;;;;;0.40;0.40;;;15.40;1.00;;;;;;5119627;22;20755;-79
2022/05/11 06:13:38;;;;;;;0.43;0.43;;;15.60;1.00;;;;;;5094390;28;20253;-80
2022/05/11 06:16:10;;;;;;;0.33;0.33;;;15.90;1.00;;;;;;5094518;28;20208;-80
2022/05/11 06:18:36;;;;;;;0.40;0.40;;;16.00;1.00;;;;;;5093601;28;20665;-79
2022/05/11 06:21:03;;;;;;;0.40;0.40;;;16.20;1.00;;;;;;5093389;28;20193;-79
2022/05/11 06:23:28;;;;;;;0.30;0.30;;;16.50;1.00;;;;;;5095114;28;20209;-79
2022/05/11 06:25:54;;;;;;;0.40;0.40;;;16.60;1.00;;;;;;5076636;28;20698;-84
2022/05/11 06:28:20;;;;;;;0.40;0.40;;;16.60;1.00;;;;;;5093069;28;20683;-77
2022/05/11 06:30:47;;;;;;;0.30;0.30;;;16.80;1.00;;;;;;5091988;28;20234;-80
2022/05/11 06:33:13;;;;;;;0.37;0.37;;;16.90;99.90;;;;;;5094145;28;20174;-80
2022/05/11 06:35:38;;;;;;;0.30;0.30;;;17.30;87.50;;;;;;5092930;28;20170;-78
2022/05/11 06:38:06;;;;;;;0.30;0.30;;;17.30;1.00;;;;;;5092700;28;20180;-79
2022/05/11 06:40:32;;;;;;;0.40;0.40;;;17.40;1.00;;;;;;5091978;28;20174;-77
2022/05/11 06:42:57;;;;;;;0.40;0.40;;;17.60;1.00;;;;;;5096054;28;20266;-78
2022/05/11 06:45:23;;;;;;;0.30;0.30;;;17.80;99.90;;;;;;5078066;28;20556;-78
2022/05/11 06:47:49;;;;;;;0.30;0.30;;;18.10;99.90;;;;;;5096889;28;20178;-78
2022/05/11 06:50:16;;;;;;;0.40;0.40;;;18.20;99.90;;;;;;5095681;28;20280;-76
2022/05/11 06:52:41;;;;;;;0.40;0.40;;;18.30;99.90;;;;;;5096335;28;20185;-79
2022/05/11 07:00:35;;;;;;;0.40;0.40;;;18.60;1.00;;;;;;5097458;28;20200;-78
2022/05/11 07:03:02;;;;;;;0.30;0.30;;;18.70;1.00;;;;;;5097637;28;20292;-79
2022/05/11 07:05:29;;;;;;;0.30;0.30;;;18.80;99.90;;;;;;5100855;28;20230;-78
2022/05/11 07:07:55;;;;;;;0.30;0.30;;;18.90;1.00;;;;;;5099880;28;20206;-77
2022/05/11 07:10:21;;;;;;;0.30;0.30;;;19.20;99.90;;;;;;5076958;28;20272;-77
2022/05/11 07:12:47;;;;;;;0.40;0.40;;;19.40;92.20;;;;;;5077984;28;20720;-76
2022/05/11 07:15:15;;;;;;;0.40;0.40;;;19.50;1.00;;;;;;5076406;28;20177;-76
2022/05/11 07:17:47;;;;;;;0.33;0.33;;;19.60;1.00;;;;;;5076080;28;20178;-76
2022/05/11 07:20:35;;;;;;;0.40;0.40;;;19.80;99.90;;;;;;5090328;28;20577;-77
2022/05/11 07:23:06;;;;;;;0.37;0.37;;;20.10;1.00;;;;;;5091537;28;20190;-76
2022/05/11 07:25:33;;;;;;;0.33;0.33;;;20.20;99.90;;;;;;5094488;28;20639;-76
2022/05/11 07:27:59;;;;;;;0.30;0.30;;;20.40;99.90;;;;;;5093986;28;20654;-74
2022/05/11 07:30:30;;;;;;;0.30;0.30;;;20.50;1.30;;;;;;5093605;28;20174;-76
2022/05/11 07:32:56;;;;;;;0.30;0.30;;;20.80;1.00;;;;;;5093925;28;20659;-76
2022/05/11 07:35:22;;;;;;;0.30;0.30;;;21.10;1.00;;;;;;5094127;28;20213;-77
2022/05/11 07:37:48;;;;;;;0.30;0.30;;;21.40;1.00;;;;;;5093563;28;20518;-76
2022/05/11 07:40:16;;;;;;;0.23;0.23;;;21.70;1.00;;;;;;5092830;28;20194;-74
2022/05/11 07:42:43;;;;;;;0.30;0.30;;;22.20;1.00;;;;;;5093342;28;20613;-75
2022/05/11 07:45:10;;;;;;;0.40;0.40;;;22.90;1.00;;;;;;5094350;28;20186;-77
2022/05/11 07:47:36;;;;;;;0.40;0.40;;;23.80;1.00;;;;;;5095015;28;20242;-76
2022/05/11 07:50:02;;;;;;;0.30;0.30;;;24.40;1.00;;;;;;5096502;28;20206;-72
2022/05/11 07:52:27;;;;;;;0.30;0.30;;;25.00;1.00;;;;;;5096363;28;20232;-73
2022/05/11 07:54:53;;;;;;;0.30;0.30;;;25.50;1.00;;;;;;5095681;28;20299;-73
2022/05/11 08:00:06;;;;;;;0.30;0.30;;;26.10;1.00;;;;;;5093614;28;20173;-74
2022/05/11 08:02:36;;;;;;;0.30;0.30;;;26.10;1.00;;;;;;5093185;28;20197;-75
2022/05/11 08:05:11;;;;;;;0.30;0.30;;;26.30;1.00;;;;;;5093282;28;20200;-75
2022/05/11 08:07:42;;;;;;;0.33;0.33;;;26.60;1.00;;;;;;5093840;28;20522;-77
2022/05/11 08:10:11;;;;;;;0.50;0.50;;;26.70;1.00;;;;;;5091871;28;20185;-74
2022/05/11 08:12:37;;;;;;;0.40;0.40;;;26.90;1.00;;;;;;5092539;28;20667;-75
2022/05/11 08:15:03;;;;;;;0.43;0.43;;;26.80;1.00;;;;;;5092918;28;20166;-75
2022/05/11 08:17:32;;;;;;;0.50;0.50;;;27.00;1.00;;;;;;5092436;28;20170;-75
2022/05/11 08:20:01;;;;;;;0.60;0.60;;;27.60;1.00;;;;;;5092242;28;20174;-75
2022/05/11 08:22:28;;;;;;;0.60;0.60;;;28.10;1.00;;;;;;5092720;28;20193;-74
2022/05/11 08:24:56;;;;;;;0.50;0.50;;;28.30;1.00;;;;;;5092303;28;20200;-75
2022/05/11 08:27:26;;;;;;;0.50;0.50;;;28.30;1.00;;;;;;5092356;28;20178;-75
2022/05/11 08:35:33;;;;;;;0.60;0.60;;;28.00;1.00;;;;;;5092786;28;20295;-75
2022/05/11 08:37:59;;;;;;;0.60;0.60;;;28.30;1.00;;;;;;5092616;28;20207;-76
2022/05/11 08:40:37;;;;;;;0.50;0.50;;;28.50;1.00;;;;;;5091091;28;20635;-76
2022/05/11 08:43:05;;;;;;;0.50;0.50;;;28.10;1.00;;;;;;5093332;28;20220;-75
2022/05/11 08:45:42;;;;;;;0.40;0.40;;;28.10;1.00;;;;;;5093211;28;20593;-75
2022/05/11 08:48:10;;;;;;;0.40;0.40;;;28.30;1.00;;;;;;5092662;28;20660;-76
2022/05/11 08:50:43;;;;;;;0.60;0.60;;;28.50;1.00;;;;;;5091736;28;20198;-75
2022/05/11 08:53:39;;;;;;;0.50;0.50;;;28.50;1.00;;;;;;5092744;28;20181;-75
2022/05/11 08:56:15;;;;;;;0.60;0.60;;;28.70;1.00;;;;;;5091010;28;20184;-75
2022/05/11 08:58:52;;;;;;;0.47;0.47;;;28.60;1.00;;;;;;5092638;28;20256;-76
2022/05/11 09:01:23;;;;;;;0.60;0.60;;;29.30;1.00;;;;;;5089840;28;20848;-75
2022/05/11 09:03:53;;;;;;;0.50;0.50;;;29.30;1.00;;;;;;5091843;28;20198;-75
2022/05/11 09:06:26;;;;;;;0.40;0.40;;;29.20;1.00;;;;;;5092091;28;20181;-75
2022/05/11 09:08:54;;;;;;;0.60;0.60;;;29.00;1.00;;;;;;5092060;28;20169;-75
2022/05/11 09:11:31;;;;;;;0.60;0.60;;;28.60;1.00;;;;;;5091864;28;20719;-75
2022/05/11 09:13:58;;;;;;;0.50;0.50;;;28.70;1.00;;;;;;5091803;28;20181;-75
2022/05/11 09:16:46;;;;;;;0.60;0.60;;;28.80;1.00;;;;;;5092189;28;20260;-75
2022/05/11 09:19:24;;;;;;;0.53;0.53;;;29.10;1.00;;;;;;5090377;28;20185;-76
2022/05/11 09:22:05;;;;;;;0.50;0.50;;;29.40;1.00;;;;;;5091648;28;20307;-75
2022/05/11 09:24:37;;;;;;;0.50;0.50;;;29.50;1.00;;;;;;5091841;28;20205;-77
2022/05/11 09:27:09;;;;;;;0.53;0.53;;;29.60;1.00;;;;;;5092146;28;20178;-76
2022/05/11 09:29:42;;;;;;;0.50;0.50;;;29.60;1.00;;;;;;5091216;28;20639;-77
2022/05/11 09:32:23;;;;;;;0.50;0.50;;;29.70;1.00;;;;;;5091619;28;20679;-75
2022/05/11 09:34:48;;;;;;;0.53;0.53;;;29.70;1.00;;;;;;5091612;28;20170;-75
2022/05/11 09:37:34;;;;;;;0.57;0.57;;;29.70;1.00;;;;;;5092128;28;20246;-79
2022/05/11 09:40:13;;;;;;;0.40;0.40;;;29.90;1.00;;;;;;5091241;28;20178;-75
2022/05/11 09:42:49;;;;;;;0.50;0.50;;;29.90;1.00;;;;;;5091574;28;20232;-76
2022/05/11 09:45:35;;;;;;;0.53;0.53;;;29.80;1.00;;;;;;5091317;28;20656;-75
2022/05/11 09:48:08;;;;;;;0.50;0.50;;;30.20;1.00;;;;;;5091513;28;20207;-76
2022/05/11 09:50:34;;;;;;;0.50;0.50;;;30.40;1.00;;;;;;5090528;28;20209;-75
2022/05/11 09:53:28;;;;;;;0.50;0.50;;;30.10;1.00;;;;;;5091574;28;20649;-77
2022/05/11 09:55:55;;;;;;;0.60;0.60;;;29.80;1.00;;;;;;5090529;28;20237;-77
2022/05/11 09:58:32;;;;;;;0.40;0.40;;;29.80;1.00;;;;;;5091397;28;20169;-77
2022/05/11 10:01:11;;;;;;;0.50;0.50;;;29.90;1.00;;;;;;5089363;28;20296;-76
2022/05/11 10:03:42;;;;;;;0.43;0.43;;;29.50;1.00;;;;;;5090346;28;20190;-77
2022/05/11 10:06:09;;;;;;;0.47;0.47;;;29.40;1.00;;;;;;5090979;28;20584;-76
2022/05/11 10:08:37;;;;;;;0.40;0.40;;;29.30;1.00;;;;;;5091635;28;20239;-76
2022/05/11 10:11:12;;;;;;;0.30;0.30;;;29.10;1.00;;;;;;5087964;28;20236;-75
2022/05/11 10:13:46;;;;;;;0.50;0.50;;;29.80;1.00;;;;;;5090547;28;20189;-77
2022/05/11 10:22:13;;;;;;;0.60;0.60;;;30.60;1.00;;;;;;5092859;28;20223;-77
2022/05/11 10:25:14;;;;;;;0.60;0.60;;;30.30;1.00;;;;;;5092725;28;20751;-78
2022/05/11 10:27:48;;;;;;;0.47;0.47;;;29.60;1.00;;;;;;5094584;28;20178;-78
2022/05/11 10:30:25;;;;;;;0.40;0.40;;;29.60;1.00;;;;;;5093763;28;20177;-79
2022/05/11 10:33:33;;;;;;;0.50;0.50;;;29.70;1.00;;;;;;5094608;28;20173;-77
2022/05/11 10:36:29;;;;;;;0.60;0.60;;;30.20;1.00;;;;;;5082384;28;20231;-77
2022/05/11 10:39:25;;;;;;;0.50;0.50;;;30.20;1.00;;;;;;5090707;28;20499;-80
2022/05/11 10:42:04;;;;;;;0.30;0.30;;;29.80;1.00;;;;;;5092622;28;20246;-80
2022/05/11 10:44:57;;;;;;;0.50;0.50;;;29.90;1.00;;;;;;5093223;28;20212;-78
2022/05/11 10:47:44;;;;;;;0.60;0.60;;;30.40;1.00;;;;;;5092852;28;20366;-78
2022/05/11 10:50:36;;;;;;;0.50;0.50;;;30.30;1.00;;;;;;5094809;28;20172;-77
2022/05/11 10:53:27;;;;;;;0.50;0.50;;;30.50;1.00;;;;;;5096059;28;20186;-78
2022/05/11 10:56:17;;;;;;;0.40;0.40;;;30.70;1.00;;;;;;5094844;28;20577;-77
2022/05/11 10:58:42;;;;;;;0.60;0.60;;;31.00;1.00;;;;;;5090220;28;20178;-83
2022/05/11 11:01:12;;;;;;;0.50;0.50;;;31.20;1.00;;;;;;5091795;28;20251;-78
2022/05/11 11:03:56;;;;;;;0.60;0.60;;;30.70;1.00;;;;;;5093267;28;20270;-75
2022/05/11 11:09:47;;;;;;;0.60;0.60;;;30.20;1.00;;;;;;5093394;28;20627;-77
2022/05/11 11:12:44;;;;;;;0.40;0.40;;;30.30;1.00;;;;;;5094472;28;20261;-78
2022/05/11 11:15:13;;;;;;;0.50;0.50;;;30.40;1.00;;;;;;5093820;28;20195;-78
2022/05/11 11:17:42;;;;;;;0.30;0.30;;;30.70;1.00;;;;;;5094162;28;20647;-77
2022/05/11 11:20:09;;;;;;;0.40;0.40;;;30.90;1.00;;;;;;5090287;28;20793;-76
2022/05/11 11:23:04;;;;;;;0.40;0.40;;;30.90;1.00;;;;;;5087306;28;20650;-77
2022/05/11 11:25:55;;;;;;;0.40;0.40;;;30.80;1.00;;;;;;5070939;28;20274;-76
2022/05/11 11:28:51;;;;;;;0.60;0.60;;;31.10;1.00;;;;;;5089694;28;20182;-75
2022/05/11 11:31:20;;;;;;;0.50;0.50;;;31.10;1.00;;;;;;5093647;28;20193;-75
2022/05/11 11:33:54;;;;;;;0.50;0.50;;;31.50;1.00;;;;;;5093754;28;20246;-75
2022/05/11 11:36:26;;;;;;;0.50;0.50;;;31.20;1.00;;;;;;5093840;28;20169;-76
2022/05/11 11:38:53;;;;;;;0.40;0.40;;;31.30;1.00;;;;;;5094246;28;20177;-76
2022/05/11 11:41:23;;;;;;;0.60;0.60;;;31.40;1.00;;;;;;5094697;28;20409;-78
2022/05/11 11:44:21;;;;;;;0.50;0.50;;;30.70;1.00;;;;;;5094286;28;20203;-76
2022/05/11 11:46:47;;;;;;;0.47;0.47;;;30.30;1.00;;;;;;5094742;28;20178;-77
2022/05/11 11:49:18;;;;;;;0.50;0.50;;;29.80;1.00;;;;;;5095365;28;20230;-78
2022/05/11 11:51:50;;;;;;;0.50;0.50;;;29.80;1.00;;;;;;5094405;28;20209;-77
2022/05/11 11:54:38;;;;;;;0.40;0.40;;;30.20;1.00;;;;;;5095708;28;20178;-79
2022/05/11 11:57:25;;;;;;;0.60;0.60;;;30.40;1.00;;;;;;5095319;28;20223;-77
2022/05/11 11:59:53;;;;;;;0.50;0.50;;;30.50;1.00;;;;;;5094713;28;20178;-76
2022/05/11 12:02:22;;;;;;;0.60;0.60;;;30.60;1.00;;;;;;5094383;28;20217;-76
2022/05/11 12:04:54;;;;;;;0.67;0.67;;;30.90;1.00;;;;;;5100020;28;20269;-77
2022/05/11 12:15:46;;;;;;;0.50;0.50;;;30.90;1.00;;;;;;5099703;28;20177;-78
2022/05/11 12:18:24;;;;;;;0.50;0.50;;;31.10;1.00;;;;;;5097656;28;20174;-78
2022/05/11 12:20:50;;;;;;;0.50;0.50;;;30.80;1.00;;;;;;5095910;28;20303;-77
2022/05/11 12:23:31;;;;;;;0.60;0.60;;;30.90;1.00;;;;;;5097506;28;20237;-77
2022/05/11 12:26:00;;;;;;;0.50;0.50;;;30.70;1.00;;;;;;5094341;28;20180;-77
2022/05/11 12:28:34;;;;;;;0.40;0.40;;;30.50;1.00;;;;;;5095811;28;20170;-77
2022/05/11 12:31:01;;;;;;;0.60;0.60;;;30.10;1.00;;;;;;5095324;28;20186;-77
2022/05/11 12:33:33;;;;;;;0.40;0.40;;;30.60;1.00;;;;;;5100173;28;20664;-80
2022/05/11 12:35:59;;;;;;;0.60;0.60;;;30.90;1.00;;;;;;5098970;28;20521;-78
2022/05/11 12:38:32;;;;;;;0.60;0.60;;;31.00;1.00;;;;;;5097073;28;20174;-80
2022/05/11 12:41:00;;;;;;;0.40;0.40;;;30.90;1.00;;;;;;5096827;28;20189;-78
2022/05/11 12:43:30;;;;;;;0.50;0.50;;;30.80;1.00;;;;;;5097166;28;20553;-80
2022/05/11 12:46:06;;;;;;;0.53;0.53;;;30.90;1.00;;;;;;5098347;28;20178;-79
2022/05/11 12:48:39;;;;;;;0.50;0.50;;;30.80;1.00;;;;;;5100418;28;20646;-78
2022/05/11 12:51:15;;;;;;;0.60;0.60;;;31.00;1.00;;;;;;5100881;28;20194;-77
2022/05/11 12:53:53;;;;;;;0.47;0.47;;;31.10;1.00;;;;;;5097091;28;20182;-77
2022/05/11 12:56:27;;;;;;;0.60;0.60;;;31.50;1.00;;;;;;5096155;28;20173;-78
2022/05/11 12:58:56;;;;;;;0.50;0.50;;;31.60;1.00;;;;;;5096414;28;20281;-78
2022/05/11 13:01:24;;;;;;;0.53;0.53;;;31.30;1.00;;;;;;5095233;28;20198;-78
2022/05/11 13:03:52;;;;;;;0.60;0.60;;;31.40;1.00;;;;;;5096644;28;20312;-78
2022/05/11 13:06:37;;;;;;;0.50;0.50;;;31.30;1.00;;;;;;5097528;28;20189;-76
2022/05/11 13:09:09;;;;;;;0.40;0.40;;;31.70;1.00;;;;;;5091597;28;20209;-77
2022/05/11 13:11:37;;;;;;;0.50;0.50;;;31.50;1.00;;;;;;5092718;28;20246;-76
2022/05/11 13:14:13;;;;;;;0.40;0.40;;;31.60;1.00;;;;;;5093145;28;20186;-77
2022/05/11 13:16:47;;;;;;;0.53;0.53;;;31.70;1.00;;;;;;5095444;28;20169;-77
2022/05/11 13:19:25;;;;;;;0.53;0.53;;;31.60;1.00;;;;;;5097184;28;20170;-76
2022/05/11 13:21:55;;;;;;;0.50;0.50;;;31.40;1.00;;;;;;5093036;28;20201;-75
2022/05/11 13:24:38;;;;;;;0.60;0.60;;;31.40;1.00;;;;;;5092831;28;20294;-77
2022/05/11 13:27:23;;;;;;;0.50;0.50;;;31.20;1.00;;;;;;5092676;28;20276;-76
2022/05/11 13:29:49;;;;;;;0.50;0.50;;;31.20;1.00;;;;;;5094852;28;20174;-78
2022/05/11 13:32:24;;;;;;;0.40;0.40;;;31.30;1.00;;;;;;5098489;28;20190;-80
2022/05/11 13:34:49;;;;;;;0.60;0.60;;;31.30;1.00;;;;;;5096366;28;20165;-79
2022/05/11 13:37:25;;;;;;;0.60;0.60;;;31.10;1.00;;;;;;5096444;28;20193;-77
2022/05/11 13:39:51;;;;;;;0.50;0.50;;;31.00;1.00;;;;;;5090967;28;20177;-77
2022/05/11 13:42:20;;;;;;;0.60;0.60;;;31.10;1.00;;;;;;5091762;28;20193;-77
2022/05/11 13:44:52;;;;;;;0.60;0.60;;;31.30;1.00;;;;;;5093736;28;20220;-82
2022/05/11 13:50:27;;;;;;;0.53;0.53;;;30.90;1.00;;;;;;5095426;28;20216;-77
2022/05/11 13:53:16;;;;;;;0.60;0.60;;;30.90;1.00;;;;;;5108867;28;20232;-77
2022/05/11 13:55:59;;;;;;;0.40;0.40;;;31.10;1.00;;;;;;5091968;28;20186;-76